createdAt,value
2019-03-10T00:00:38.657Z,11.00
2019-03-10T00:03:07.102Z,10.90
2019-03-10T00:05:35.811Z,10.80
2019-03-10T00:08:04.309Z,10.80
2019-03-10T00:10:32.774Z,10.70
2019-03-10T00:13:01.309Z,10.70
2019-03-10T00:15:30.015Z,10.70
2019-03-10T00:17:58.457Z,10.70
2019-03-10T00:20:26.964Z,10.70
2019-03-10T00:22:55.468Z,10.70
2019-03-10T00:25:23.914Z,10.60
2019-03-10T00:27:52.346Z,10.50
2019-03-10T00:30:20.785Z,10.50
2019-03-10T00:32:49.222Z,10.50
2019-03-10T00:35:17.669Z,10.50
2019-03-10T00:37:46.109Z,10.40
2019-03-10T00:40:35.488Z,10.40
2019-03-10T00:43:26.333Z,10.50
2019-03-10T00:45:57.850Z,10.50
2019-03-10T00:48:32.158Z,10.40
2019-03-10T00:51:23.614Z,10.40
2019-03-10T00:53:52.061Z,10.30
2019-03-10T00:56:20.493Z,10.20
2019-03-10T00:58:48.926Z,10.20
2019-03-10T01:01:17.375Z,10.20
2019-03-10T01:03:45.806Z,10.20
2019-03-10T01:06:14.244Z,10.20
2019-03-10T01:08:42.682Z,10.20
2019-03-10T01:11:11.198Z,10.20
2019-03-10T01:13:40.058Z,10.20
2019-03-10T01:16:08.946Z,10.20
2019-03-10T01:18:37.745Z,10.20
2019-03-10T01:21:06.261Z,10.20
2019-03-10T01:23:34.949Z,10.10
2019-03-10T01:26:03.410Z,10.10
2019-03-10T01:28:32.175Z,10.00
2019-03-10T01:31:09.872Z,10.00
2019-03-10T01:34:05.513Z,9.90
2019-03-10T01:36:33.144Z,9.90
2019-03-10T01:39:06.367Z,9.90
2019-03-10T01:41:35.136Z,9.70
2019-03-10T01:44:03.560Z,9.60
2019-03-10T01:46:32.006Z,9.60
2019-03-10T01:49:00.434Z,9.50
2019-03-10T01:51:28.873Z,9.50
2019-03-10T01:53:58.140Z,9.40
2019-03-10T01:56:26.606Z,9.40
2019-03-10T01:58:55.057Z,9.20
2019-03-10T02:01:23.482Z,9.10
2019-03-10T02:03:51.945Z,9.10
2019-03-10T02:06:20.373Z,9.00
2019-03-10T02:08:49.142Z,8.80
2019-03-10T02:11:17.677Z,8.70
2019-03-10T02:13:46.142Z,8.70
2019-03-10T02:16:14.894Z,8.60
2019-03-10T02:18:43.363Z,8.50
2019-03-10T02:21:11.789Z,8.40
2019-03-10T02:23:40.226Z,8.40
2019-03-10T02:26:08.669Z,8.40
2019-03-10T02:28:37.092Z,8.40
2019-03-10T02:31:05.543Z,8.30
2019-03-10T02:33:34.536Z,8.10
2019-03-10T02:36:02.970Z,8.00
2019-03-10T02:38:31.748Z,8.00
2019-03-10T02:41:00.182Z,8.00
2019-03-10T02:43:28.608Z,8.00
2019-03-10T02:45:57.131Z,7.90
2019-03-10T02:48:25.566Z,7.90
2019-03-10T02:50:53.994Z,7.90
2019-03-10T02:53:22.427Z,8.00
2019-03-10T02:55:50.881Z,8.00
2019-03-10T02:58:19.374Z,8.10
2019-03-10T03:00:47.818Z,8.10
2019-03-10T03:03:16.254Z,8.20
2019-03-10T03:05:45.104Z,8.30
2019-03-10T03:08:16.710Z,8.40
2019-03-10T03:10:43.726Z,8.40
2019-03-10T03:13:12.148Z,8.30
2019-03-10T03:15:40.582Z,8.30
2019-03-10T03:18:09.297Z,8.20
2019-03-10T03:20:37.809Z,8.20
2019-03-10T03:23:06.239Z,8.10
2019-03-10T03:25:34.749Z,8.10
2019-03-10T03:28:03.183Z,8.00
2019-03-10T03:30:31.726Z,7.90
2019-03-10T03:33:00.602Z,7.80
2019-03-10T03:35:55.497Z,7.80
2019-03-10T03:38:32.900Z,7.80
2019-03-10T03:41:04.394Z,7.90
2019-03-10T03:43:32.827Z,7.90
2019-03-10T03:46:01.318Z,7.90
2019-03-10T03:48:29.800Z,7.90
2019-03-10T03:50:58.584Z,7.90
2019-03-10T03:53:27.030Z,7.90
2019-03-10T03:55:55.740Z,8.00
2019-03-10T03:58:24.171Z,8.00
2019-03-10T04:00:54.282Z,8.10
2019-03-10T04:03:22.705Z,8.20
2019-03-10T04:05:51.210Z,8.20
2019-03-10T04:08:19.724Z,8.20
2019-03-10T04:10:48.144Z,8.30
2019-03-10T04:13:16.586Z,8.50
2019-03-10T04:15:45.026Z,8.90
2019-03-10T04:18:13.719Z,9.10
2019-03-10T04:20:42.157Z,9.30
2019-03-10T04:23:10.602Z,9.70
2019-03-10T04:25:39.106Z,9.80
2019-03-10T04:28:07.547Z,9.80
2019-03-10T04:30:36.221Z,9.90
2019-03-10T04:33:04.662Z,9.90
2019-03-10T04:35:33.090Z,10.00
2019-03-10T04:38:01.530Z,10.10
2019-03-10T04:40:29.965Z,10.00
2019-03-10T04:42:58.411Z,10.10
2019-03-10T04:45:26.833Z,10.00
2019-03-10T04:47:55.364Z,9.90
2019-03-10T04:50:23.805Z,10.00
2019-03-10T04:52:52.250Z,9.90
2019-03-10T04:55:22.315Z,9.70
2019-03-10T04:57:58.114Z,9.60
2019-03-10T05:00:27.086Z,9.60
2019-03-10T05:02:55.518Z,9.60
2019-03-10T05:05:24.387Z,9.50
2019-03-10T05:07:52.816Z,9.40
2019-03-10T05:10:21.254Z,9.40
2019-03-10T05:12:50.033Z,9.30
2019-03-10T05:15:18.460Z,9.30
2019-03-10T05:17:46.895Z,9.20
2019-03-10T05:20:15.328Z,9.10
2019-03-10T05:22:43.760Z,9.00
2019-03-10T05:25:15.406Z,9.00
2019-03-10T05:27:43.840Z,8.90
2019-03-10T05:30:12.342Z,8.90
2019-03-10T05:32:40.781Z,8.90
2019-03-10T05:35:09.282Z,8.90
2019-03-10T05:37:37.725Z,8.80
2019-03-10T05:40:07.590Z,8.80
2019-03-10T05:42:36.038Z,8.70
2019-03-10T05:45:06.855Z,8.70
2019-03-10T05:47:35.318Z,8.70
2019-03-10T05:50:05.217Z,8.70
2019-03-10T05:52:33.725Z,8.80
2019-03-10T05:55:02.245Z,8.80
2019-03-10T05:57:30.929Z,8.80
2019-03-10T05:59:59.437Z,8.80
2019-03-10T06:02:28.167Z,8.70
2019-03-10T06:04:56.588Z,8.70
2019-03-10T06:07:25.273Z,8.60
2019-03-10T06:09:53.707Z,8.60
2019-03-10T06:12:22.146Z,8.60
2019-03-10T06:14:50.892Z,8.50
2019-03-10T06:17:21.362Z,8.50
2019-03-10T06:19:49.998Z,8.60
2019-03-10T06:22:18.464Z,8.60
2019-03-10T06:24:46.938Z,8.60
2019-03-10T06:27:15.379Z,8.60
2019-03-10T06:29:43.801Z,8.60
2019-03-10T06:32:12.236Z,8.60
2019-03-10T06:34:40.681Z,8.60
2019-03-10T06:37:09.111Z,8.60
2019-03-10T06:39:37.845Z,8.60
2019-03-10T06:42:06.272Z,8.60
2019-03-10T06:44:34.967Z,8.50
2019-03-10T06:47:03.398Z,8.60
2019-03-10T06:49:32.212Z,8.60
2019-03-10T06:52:00.697Z,8.60
2019-03-10T06:54:29.137Z,8.60
2019-03-10T06:56:57.571Z,8.60
2019-03-10T06:59:26.026Z,8.50
2019-03-10T07:01:54.801Z,8.50
2019-03-10T07:04:23.220Z,8.60
2019-03-10T07:06:51.666Z,8.60
2019-03-10T07:09:20.103Z,8.60
2019-03-10T07:11:48.535Z,8.60
2019-03-10T07:14:17.320Z,8.60
2019-03-10T07:16:45.739Z,8.60
2019-03-10T07:19:14.173Z,8.60
2019-03-10T07:21:42.618Z,8.60
2019-03-10T07:24:11.065Z,8.60
2019-03-10T07:26:39.763Z,8.60
2019-03-10T07:29:09.849Z,8.60
2019-03-10T07:31:42.647Z,8.60
2019-03-10T07:34:12.738Z,8.60
2019-03-10T07:36:45.382Z,8.60
2019-03-10T07:39:15.453Z,8.60
2019-03-10T07:42:03.587Z,8.60
2019-03-10T07:44:36.214Z,8.60
2019-03-10T07:47:12.053Z,8.50
2019-03-10T07:49:42.143Z,8.50
2019-03-10T07:52:20.384Z,8.50
2019-03-10T07:54:56.012Z,8.50
2019-03-10T07:57:26.111Z,8.60
2019-03-10T07:59:56.169Z,8.60
2019-03-10T08:02:38.067Z,8.60
2019-03-10T08:05:23.826Z,8.60
2019-03-10T08:07:54.242Z,8.60
2019-03-10T08:10:24.342Z,8.60
2019-03-10T08:12:54.674Z,8.60
2019-03-10T08:15:25.001Z,8.60
2019-03-10T08:17:55.073Z,8.60
2019-03-10T08:20:25.159Z,8.70
2019-03-10T08:22:55.230Z,8.70
2019-03-10T08:25:28.182Z,8.80
2019-03-10T08:28:07.177Z,8.80
2019-03-10T08:30:37.262Z,8.90
2019-03-10T08:33:23.893Z,9.00
2019-03-10T08:35:59.949Z,9.00
2019-03-10T08:38:41.809Z,9.00
2019-03-10T08:41:17.866Z,9.10
2019-03-10T08:43:50.894Z,9.10
2019-03-10T08:46:21.253Z,9.10
2019-03-10T08:48:54.275Z,9.20
2019-03-10T08:51:24.358Z,9.20
2019-03-10T08:54:00.145Z,9.30
2019-03-10T08:56:39.271Z,9.30
2019-03-10T08:59:09.344Z,9.40
2019-03-10T09:01:50.927Z,9.40
2019-03-10T09:04:33.238Z,9.40
2019-03-10T09:07:09.312Z,9.50
2019-03-10T09:09:55.965Z,9.70
2019-03-10T09:12:26.118Z,9.70
2019-03-10T09:15:02.199Z,9.80
2019-03-10T09:17:35.253Z,9.80
2019-03-10T09:20:09.418Z,9.90
2019-03-10T09:22:39.531Z,9.80
2019-03-10T09:25:15.445Z,9.90
2019-03-10T09:28:00.499Z,9.90
2019-03-10T09:30:45.876Z,9.90
2019-03-10T09:33:25.163Z,10.00
2019-03-10T09:35:55.504Z,10.00
2019-03-10T09:38:31.386Z,10.10
2019-03-10T09:41:04.165Z,10.10
2019-03-10T09:43:50.586Z,10.20
2019-03-10T09:46:23.617Z,10.20
2019-03-10T09:48:59.175Z,10.30
2019-03-10T09:51:31.982Z,10.30
2019-03-10T09:54:18.301Z,10.30
2019-03-10T09:56:57.678Z,10.40
2019-03-10T09:59:36.549Z,10.40
2019-03-10T10:02:09.309Z,10.50
2019-03-10T10:04:57.689Z,10.50
2019-03-10T10:07:36.580Z,10.60
2019-03-10T10:10:17.726Z,10.50
2019-03-10T10:12:48.075Z,10.60
2019-03-10T10:15:27.109Z,10.60
2019-03-10T10:20:50.366Z,10.60
2019-03-10T10:23:23.634Z,10.70
2019-03-10T10:26:11.090Z,10.70
2019-03-10T10:28:47.313Z,10.70
2019-03-10T10:31:23.216Z,10.70
2019-03-10T10:33:53.321Z,10.70
2019-03-10T10:36:26.667Z,10.60
2019-03-10T10:39:05.537Z,10.60
2019-03-10T10:41:52.327Z,10.60
2019-03-10T10:44:25.129Z,10.60
2019-03-10T10:46:55.209Z,10.60
2019-03-10T10:49:28.402Z,10.70
2019-03-10T10:52:10.508Z,10.70
2019-03-10T10:54:46.061Z,10.60
2019-03-10T10:57:16.146Z,10.60
2019-03-10T10:59:53.115Z,10.60
2019-03-10T11:02:23.189Z,10.70
2019-03-10T11:05:08.620Z,10.70
2019-03-10T11:07:53.405Z,10.70
2019-03-10T11:10:23.757Z,10.70
2019-03-10T11:13:05.604Z,10.70
2019-03-10T11:15:35.669Z,10.70
2019-03-10T11:18:14.286Z,10.70
2019-03-10T11:20:53.334Z,10.60
2019-03-10T11:23:26.269Z,10.70
2019-03-10T11:26:05.224Z,10.70
2019-03-10T11:28:38.512Z,10.60
2019-03-10T11:31:14.188Z,10.70
2019-03-10T11:33:44.605Z,10.70
2019-03-10T11:36:17.445Z,10.70
2019-03-10T11:38:59.343Z,10.80
2019-03-10T11:41:33.797Z,10.80
2019-03-10T11:44:03.925Z,10.80
2019-03-10T11:46:36.921Z,10.80
2019-03-10T11:49:13.065Z,10.90
2019-03-10T11:51:55.099Z,10.90
2019-03-10T11:54:40.240Z,10.90
2019-03-10T11:57:13.053Z,10.90
2019-03-10T11:59:46.228Z,10.80
2019-03-10T12:02:32.690Z,10.80
2019-03-10T12:05:05.742Z,10.80
2019-03-10T12:07:44.638Z,10.80
2019-03-10T12:10:13.169Z,10.80
2019-03-10T12:12:41.597Z,10.80
2019-03-10T12:15:12.893Z,10.80
2019-03-10T12:17:40.539Z,10.70
2019-03-10T12:20:11.608Z,10.70
2019-03-10T12:22:40.066Z,10.60
2019-03-10T12:25:11.900Z,10.60
2019-03-10T12:27:40.351Z,10.60
2019-03-10T12:30:11.420Z,10.70
2019-03-10T12:32:39.885Z,10.70
2019-03-10T12:35:08.802Z,10.70
2019-03-10T12:37:37.268Z,10.80
2019-03-10T12:40:08.848Z,10.80
2019-03-10T12:42:37.623Z,10.90
2019-03-10T12:45:08.534Z,10.80
2019-03-10T12:47:37.033Z,10.80
2019-03-10T12:50:09.068Z,10.80
2019-03-10T12:52:38.370Z,10.80
2019-03-10T12:55:09.088Z,10.90
2019-03-10T12:57:38.041Z,10.90
2019-03-10T13:00:14.929Z,10.90
2019-03-10T13:05:58.439Z,10.90
2019-03-10T13:08:27.806Z,10.90
2019-03-10T13:10:57.008Z,11.00
2019-03-10T13:17:19.222Z,11.10
2019-03-10T13:19:47.738Z,11.20
2019-03-10T13:22:16.167Z,11.20
2019-03-10T13:24:44.591Z,11.10
2019-03-10T13:27:13.144Z,11.10
2019-03-10T13:29:41.704Z,11.10
2019-03-10T13:32:10.446Z,11.10
2019-03-10T13:34:38.872Z,11.10
2019-03-10T13:37:07.488Z,11.10
2019-03-10T13:39:36.332Z,11.10
2019-03-10T13:42:04.853Z,11.10
2019-03-10T13:44:33.290Z,11.20
2019-03-10T13:47:01.888Z,11.30
2019-03-10T13:49:30.760Z,11.40
2019-03-10T13:51:59.266Z,11.50
2019-03-10T13:54:47.030Z,11.50
2019-03-10T13:57:15.549Z,11.50
2019-03-10T13:59:43.985Z,11.60
2019-03-10T14:02:12.759Z,11.60
2019-03-10T14:04:41.244Z,11.60
2019-03-10T14:17:12.020Z,11.70
2019-03-10T14:19:33.048Z,11.70
2019-03-10T14:22:01.786Z,11.70
2019-03-10T14:24:30.213Z,11.60
2019-03-10T14:26:58.670Z,11.60
2019-03-10T14:29:27.093Z,11.60
2019-03-10T14:31:55.541Z,11.70
2019-03-10T14:34:24.042Z,11.70
2019-03-10T14:36:52.502Z,11.70
2019-03-10T14:39:21.278Z,11.80
2019-03-10T14:41:50.071Z,11.90
2019-03-10T14:44:18.502Z,11.90
2019-03-10T14:46:47.520Z,12.00
2019-03-10T14:49:22.973Z,12.40
2019-03-10T14:51:46.196Z,12.90
2019-03-10T14:54:14.634Z,13.40
2019-03-10T14:56:43.081Z,13.80
2019-03-10T14:59:11.509Z,13.90
2019-03-10T15:01:39.948Z,14.00
2019-03-10T15:04:08.379Z,14.00
2019-03-10T15:06:38.554Z,14.20
2019-03-10T15:09:08.334Z,14.30
2019-03-10T15:11:36.780Z,14.40
2019-03-10T15:14:05.282Z,14.50
2019-03-10T15:16:33.709Z,14.50
2019-03-10T15:19:02.148Z,14.50
2019-03-10T15:21:30.594Z,14.60
2019-03-10T15:23:59.038Z,14.70
2019-03-10T15:26:27.636Z,14.70
2019-03-10T15:28:56.081Z,14.80
2019-03-10T15:31:24.514Z,15.00
2019-03-10T15:33:52.957Z,15.00
2019-03-10T15:36:21.407Z,15.10
2019-03-10T15:38:49.854Z,15.10
2019-03-10T15:41:18.558Z,15.20
2019-03-10T15:43:47.006Z,15.20
2019-03-10T15:46:15.470Z,15.20
2019-03-10T15:48:43.917Z,15.30
2019-03-10T15:51:12.357Z,15.20
2019-03-10T15:53:40.797Z,15.10
2019-03-10T15:56:09.492Z,15.20
2019-03-10T15:58:38.014Z,15.30
2019-03-10T16:01:06.451Z,15.30
2019-03-10T16:03:35.201Z,15.30
2019-03-10T16:06:03.638Z,15.30
2019-03-10T16:08:32.077Z,15.30
2019-03-10T16:11:00.516Z,15.30
2019-03-10T16:13:28.950Z,15.20
2019-03-10T16:15:57.716Z,15.20
2019-03-10T16:18:26.517Z,15.20
2019-03-10T16:20:55.210Z,15.20
2019-03-10T16:23:23.745Z,15.20
2019-03-10T16:25:52.180Z,15.30
2019-03-10T16:28:20.642Z,15.20
2019-03-10T16:30:49.103Z,15.00
2019-03-10T16:33:19.096Z,15.10
2019-03-10T16:35:47.835Z,14.90
2019-03-10T16:38:16.292Z,14.80
2019-03-10T16:40:44.718Z,14.70
2019-03-10T16:43:13.415Z,14.60
2019-03-10T16:45:41.840Z,14.40
2019-03-10T16:48:10.274Z,14.30
2019-03-10T16:50:38.713Z,14.30
2019-03-10T16:53:07.163Z,14.30
2019-03-10T16:55:35.588Z,14.10
2019-03-10T16:58:04.037Z,14.20
2019-03-10T17:00:32.545Z,14.00
2019-03-10T17:03:00.996Z,14.00
2019-03-10T17:05:29.488Z,13.90
2019-03-10T17:07:57.949Z,13.90
2019-03-10T17:10:27.023Z,13.90
2019-03-10T17:12:55.540Z,13.80
2019-03-10T17:15:24.911Z,13.80
2019-03-10T17:17:53.485Z,13.70
2019-03-10T17:20:21.980Z,13.70
2019-03-10T17:22:50.837Z,13.60
2019-03-10T17:25:19.405Z,13.60
2019-03-10T17:27:48.109Z,13.60
2019-03-10T17:30:21.551Z,13.60
2019-03-10T17:32:50.067Z,13.60
2019-03-10T17:35:19.336Z,13.50
2019-03-10T17:37:48.724Z,13.50
2019-03-10T17:40:20.050Z,13.40
2019-03-10T17:42:48.545Z,13.40
2019-03-10T17:45:18.851Z,13.30
2019-03-10T17:47:47.549Z,13.30
2019-03-10T17:50:18.197Z,13.30
2019-03-10T17:52:47.679Z,13.20
2019-03-10T17:55:24.337Z,13.10
2019-03-10T17:57:52.769Z,13.10
2019-03-10T18:00:29.146Z,13.10
2019-03-10T18:02:57.593Z,13.00
2019-03-10T18:05:26.022Z,12.90
2019-03-10T18:07:54.609Z,13.00
2019-03-10T18:10:23.066Z,13.00
2019-03-10T18:12:51.493Z,13.00
2019-03-10T18:15:20.082Z,13.00
2019-03-10T18:17:48.646Z,12.90
2019-03-10T18:20:19.545Z,12.90
2019-03-10T18:22:47.961Z,12.90
2019-03-10T18:25:16.609Z,13.00
2019-03-10T18:27:45.124Z,12.90
2019-03-10T18:30:21.981Z,12.90
2019-03-10T18:32:50.439Z,12.80
2019-03-10T18:35:18.898Z,12.80
2019-03-10T18:37:47.393Z,12.80
2019-03-10T18:40:23.016Z,12.80
2019-03-10T18:42:51.506Z,12.80
2019-03-10T18:45:20.404Z,12.70
2019-03-10T18:47:49.215Z,12.70
2019-03-10T18:50:18.955Z,12.80
2019-03-10T18:52:47.684Z,12.80
2019-03-10T18:55:17.365Z,12.70
2019-03-10T18:57:45.883Z,12.70
2019-03-10T19:00:26.439Z,12.70
2019-03-10T19:02:54.989Z,12.70
2019-03-10T19:05:23.690Z,12.60
2019-03-10T19:07:52.270Z,12.70
2019-03-10T19:10:20.708Z,12.60
2019-03-10T19:12:49.232Z,12.60
2019-03-10T19:15:37.095Z,12.60
2019-03-10T19:18:05.796Z,12.60
2019-03-10T19:20:34.610Z,12.50
2019-03-10T19:23:03.038Z,12.50
2019-03-10T19:25:31.850Z,12.50
2019-03-10T19:28:00.310Z,12.50
2019-03-10T19:30:29.198Z,12.50
2019-03-10T19:32:57.953Z,12.30
2019-03-10T19:35:26.418Z,12.30
2019-03-10T19:37:54.946Z,12.30
2019-03-10T19:40:24.169Z,12.40
2019-03-10T19:42:52.605Z,12.30
2019-03-10T19:45:22.970Z,12.20
2019-03-10T19:47:51.406Z,12.20
2019-03-10T19:50:22.475Z,12.20
2019-03-10T19:53:12.219Z,12.40
2019-03-10T19:55:41.022Z,12.40
2019-03-10T19:58:09.452Z,12.40
2019-03-10T20:00:37.913Z,12.30
2019-03-10T20:03:06.342Z,12.30
2019-03-10T20:05:34.805Z,12.30
2019-03-10T20:08:03.237Z,12.30
2019-03-10T20:10:31.684Z,12.30
2019-03-10T20:13:00.134Z,12.30
2019-03-10T20:15:28.631Z,12.20
2019-03-10T20:17:57.396Z,12.20
2019-03-10T20:20:30.566Z,12.20
2019-03-10T20:23:01.008Z,12.10
2019-03-10T20:25:33.874Z,11.90
2019-03-10T20:28:02.302Z,11.90
2019-03-10T20:30:30.760Z,11.90
2019-03-10T20:32:59.622Z,11.80
2019-03-10T20:35:28.151Z,11.70
2019-03-10T20:37:56.574Z,11.70
2019-03-10T20:40:28.880Z,11.60
2019-03-10T20:42:57.374Z,11.60
2019-03-10T20:45:26.126Z,11.50
2019-03-10T20:47:56.567Z,11.50
2019-03-10T20:50:24.731Z,11.40
2019-03-10T20:52:53.163Z,11.20
2019-03-10T20:55:21.634Z,11.10
2019-03-10T20:57:50.326Z,11.10
2019-03-10T21:00:21.570Z,11.00
2019-03-10T21:02:50.086Z,10.90
2019-03-10T21:05:19.098Z,11.00
2019-03-10T21:07:47.537Z,11.00
2019-03-10T21:10:18.406Z,11.00
2019-03-10T21:12:46.866Z,10.90
2019-03-10T21:15:19.985Z,10.80
2019-03-10T21:17:48.435Z,10.90
2019-03-10T21:20:18.894Z,10.90
2019-03-10T21:22:47.513Z,10.90
2019-03-10T21:25:18.572Z,10.80
2019-03-10T21:27:47.147Z,10.80
2019-03-10T21:30:18.462Z,10.80
2019-03-10T21:32:46.899Z,10.80
2019-03-10T21:35:17.948Z,10.70
2019-03-10T21:37:45.573Z,10.60
2019-03-10T21:40:22.718Z,10.70
2019-03-10T21:42:51.404Z,10.60
2019-03-10T21:45:19.921Z,10.60
2019-03-10T21:47:48.687Z,10.70
2019-03-10T21:50:18.272Z,10.70
2019-03-10T21:52:46.706Z,10.70
2019-03-10T21:55:16.099Z,10.70
2019-03-10T21:57:44.534Z,10.70
2019-03-10T22:00:14.601Z,10.60
2019-03-10T22:02:43.035Z,10.40
2019-03-10T22:05:12.931Z,10.40
2019-03-10T22:07:41.423Z,10.50
2019-03-10T22:10:26.298Z,10.50
2019-03-10T22:12:47.436Z,10.60
2019-03-10T22:15:17.271Z,10.70
2019-03-10T22:17:45.699Z,10.70
2019-03-10T22:20:19.497Z,10.60
2019-03-10T22:22:50.018Z,10.70
2019-03-10T22:25:18.098Z,10.70
2019-03-10T22:27:46.653Z,10.80
2019-03-10T22:30:22.078Z,10.80
2019-03-10T22:32:50.745Z,10.70
2019-03-10T22:35:19.264Z,9.70
2019-03-10T22:37:47.792Z,8.90
2019-03-10T22:40:17.317Z,8.70
2019-03-10T22:42:45.918Z,8.40
2019-03-10T22:45:18.808Z,8.30
2019-03-10T22:47:47.260Z,8.30
2019-03-10T22:50:16.418Z,8.20
2019-03-10T22:52:45.033Z,8.00
2019-03-10T22:55:14.226Z,7.80
2019-03-10T22:57:43.031Z,7.70
2019-03-10T23:00:14.408Z,7.50
2019-03-10T23:02:43.219Z,7.30
2019-03-10T23:05:12.185Z,7.10
2019-03-10T23:07:40.681Z,6.90
2019-03-10T23:10:13.934Z,6.70
2019-03-10T23:12:42.550Z,6.60
2019-03-10T23:15:13.576Z,6.60
2019-03-10T23:17:42.021Z,6.50
2019-03-10T23:20:15.454Z,6.40
2019-03-10T23:22:43.922Z,6.30
2019-03-10T23:25:12.415Z,6.50
2019-03-10T23:27:40.875Z,6.40
2019-03-10T23:30:18.163Z,6.30
2019-03-10T23:32:46.702Z,6.30
2019-03-10T23:35:15.131Z,6.40
2019-03-10T23:37:43.579Z,6.30
2019-03-10T23:40:13.859Z,6.20
2019-03-10T23:42:42.317Z,6.20
2019-03-10T23:45:13.306Z,6.20
2019-03-10T23:47:41.777Z,6.30
2019-03-10T23:50:13.546Z,6.30
2019-03-10T23:52:41.972Z,6.40
2019-03-10T23:55:12.448Z,6.40
2019-03-10T23:57:40.862Z,6.40
